Holland, New York
Current Conditions -  °F | °C
As of 5:54 PM on Saturday 25 Oct 2014 (Local Time) from KBUF Reporting Station
Haze Haze  
Wind Chill: 14°   Ceiling: 2200
Heat Index: 14°   Visibility: 5mi
Dew Point: 11°   Wind: 18mph
Humidity: 83%   Direction: 240°WSW
Pressure: 29.64"   Gusts: 29mph
Location:  42.64°N, 78.54°W
Report Text: KBUF 252154Z 24016G25KT 5SM HZ SCT013 BKN022 14/11 A2964 RMK AO2 PK WND 24029/2118 SLP036 T01390111
Loading
Personal Weather Stations






























Interactive Weather Map
Tropical Storm Tracking
New forecast layout! Learn more

10-Day Weather Forecast

Advertisements
Track Severe Weather on mobile